createdAt,value
2019-06-20T00:00:03.652Z,24.66
2019-06-20T00:02:37.034Z,24.61
2019-06-20T00:05:10.728Z,24.57
2019-06-20T00:07:44.426Z,24.55
2019-06-20T00:10:18.111Z,24.54
2019-06-20T00:13:00.278Z,24.52
2019-06-20T00:15:27.637Z,24.49
2019-06-20T00:18:01.681Z,24.45
2019-06-20T00:20:35.623Z,24.42
2019-06-20T00:23:09.157Z,24.37
2019-06-20T00:25:43.327Z,24.35
2019-06-20T00:28:16.518Z,24.29
2019-06-20T00:30:50.151Z,24.30
2019-06-20T00:33:23.619Z,24.28
2019-06-20T00:35:55.998Z,24.25
2019-06-20T00:38:29.695Z,24.20
2019-06-20T00:41:02.859Z,24.17
2019-06-20T00:43:36.111Z,24.14
2019-06-20T00:46:09.961Z,24.11
2019-06-20T00:48:44.107Z,24.09
2019-06-20T00:51:17.584Z,24.07
2019-06-20T00:53:51.208Z,24.04
2019-06-20T00:56:24.808Z,24.04
2019-06-20T00:58:58.923Z,24.03
2019-06-20T01:01:33.045Z,24.01
2019-06-20T01:04:06.293Z,24.00
2019-06-20T01:06:40.543Z,23.95
2019-06-20T01:09:14.497Z,23.94
2019-06-20T01:11:47.740Z,23.89
2019-06-20T01:14:21.446Z,23.89
2019-06-20T01:16:55.025Z,23.86
2019-06-20T01:19:29.295Z,23.82
2019-06-20T01:22:02.985Z,23.77
2019-06-20T01:24:36.788Z,23.72
2019-06-20T01:27:10.790Z,23.67
2019-06-20T01:29:44.904Z,23.65
2019-06-20T01:32:18.582Z,23.61
2019-06-20T01:34:52.333Z,23.58
2019-06-20T01:37:26.427Z,23.55
2019-06-20T01:39:59.937Z,23.52
2019-06-20T01:42:33.633Z,23.50
2019-06-20T01:45:08.067Z,23.49
2019-06-20T01:47:41.272Z,23.46
2019-06-20T01:50:14.143Z,23.44
2019-06-20T01:52:47.768Z,23.42
2019-06-20T01:55:20.901Z,23.40
2019-06-20T01:57:54.495Z,23.39
2019-06-20T02:00:50.038Z,23.36
2019-06-20T02:03:23.965Z,23.31
2019-06-20T02:05:57.951Z,23.29
2019-06-20T02:08:31.627Z,23.25
2019-06-20T02:11:06.014Z,23.23
2019-06-20T02:13:40.097Z,23.21
2019-06-20T02:16:14.113Z,23.20
2019-06-20T02:18:48.264Z,23.19
2019-06-20T02:21:21.930Z,23.14
2019-06-20T02:23:55.434Z,23.14
2019-06-20T02:26:29.228Z,23.12
2019-06-20T02:29:03.342Z,23.09
2019-06-20T02:31:37.082Z,23.07
2019-06-20T02:34:11.033Z,23.02
2019-06-20T02:36:44.458Z,22.99
2019-06-20T02:39:18.059Z,22.98
2019-06-20T02:41:51.749Z,22.96
2019-06-20T02:44:30.437Z,22.95
2019-06-20T02:47:01.223Z,22.94
2019-06-20T02:49:34.942Z,22.94
2019-06-20T02:52:08.401Z,22.93
2019-06-20T02:54:41.719Z,22.94
2019-06-20T02:57:15.597Z,22.93
2019-06-20T02:59:49.763Z,22.91
2019-06-20T03:02:23.862Z,22.88
2019-06-20T03:04:57.245Z,22.86
2019-06-20T03:07:31.103Z,22.84
2019-06-20T03:10:04.273Z,22.84
2019-06-20T03:12:38.361Z,22.84
2019-06-20T03:15:12.369Z,22.84
2019-06-20T03:17:45.955Z,22.83
2019-06-20T03:20:19.177Z,22.84
2019-06-20T03:22:53.181Z,22.84
2019-06-20T03:25:26.809Z,22.83
2019-06-20T03:28:00.027Z,22.83
2019-06-20T03:30:34.062Z,22.77
2019-06-20T03:33:06.972Z,22.72
2019-06-20T03:35:40.695Z,22.70
2019-06-20T03:38:14.877Z,22.67
2019-06-20T03:40:48.608Z,22.67
2019-06-20T03:43:22.482Z,22.67
2019-06-20T03:45:56.621Z,22.69
2019-06-20T03:48:30.092Z,22.70
2019-06-20T03:51:04.106Z,22.70
2019-06-20T03:53:36.939Z,22.73
2019-06-20T03:56:10.541Z,22.75
2019-06-20T03:58:44.142Z,22.77
2019-06-20T04:01:18.152Z,22.81
2019-06-20T04:03:52.015Z,22.86
2019-06-20T04:06:25.876Z,22.87
2019-06-20T04:08:59.771Z,22.89
2019-06-20T04:11:32.908Z,22.92
2019-06-20T04:14:06.567Z,22.97
2019-06-20T04:16:40.581Z,22.97
2019-06-20T04:19:14.489Z,22.99
2019-06-20T04:21:48.586Z,23.05
2019-06-20T04:24:22.614Z,23.10
2019-06-20T04:26:56.611Z,23.18
2019-06-20T04:29:30.718Z,23.23
2019-06-20T04:32:03.863Z,23.29
2019-06-20T04:34:37.635Z,23.33
2019-06-20T04:37:10.617Z,23.36
2019-06-20T04:39:44.355Z,23.41
2019-06-20T04:42:18.809Z,23.42
2019-06-20T04:44:53.549Z,23.47
2019-06-20T04:47:26.283Z,23.51
2019-06-20T04:49:59.837Z,23.56
2019-06-20T04:52:33.878Z,23.61
2019-06-20T04:55:06.749Z,23.61
2019-06-20T04:57:40.654Z,23.68
2019-06-20T05:00:14.658Z,23.68
2019-06-20T05:02:48.261Z,23.72
2019-06-20T05:05:22.276Z,23.77
2019-06-20T05:07:56.256Z,23.84
2019-06-20T05:10:30.495Z,23.92
2019-06-20T05:13:04.074Z,23.97
2019-06-20T05:15:51.439Z,24.01
2019-06-20T05:18:13.269Z,24.05
2019-06-20T05:20:47.375Z,24.10
2019-06-20T05:23:21.740Z,24.12
2019-06-20T05:25:55.299Z,24.16
2019-06-20T05:28:29.261Z,24.18
2019-06-20T05:31:02.941Z,24.24
2019-06-20T05:33:36.820Z,24.22
2019-06-20T05:36:10.449Z,24.23
2019-06-20T05:38:43.667Z,24.27
2019-06-20T05:41:37.509Z,24.30
2019-06-20T05:44:11.109Z,24.30
2019-06-20T05:46:45.193Z,24.35
2019-06-20T05:49:19.104Z,24.35
2019-06-20T05:51:52.558Z,24.39
2019-06-20T05:54:26.262Z,24.44
2019-06-20T05:57:03.325Z,24.47
2019-06-20T05:59:36.911Z,24.48
2019-06-20T06:02:10.442Z,24.51
2019-06-20T06:04:44.331Z,24.59
2019-06-20T06:07:18.321Z,24.64
2019-06-20T06:09:52.145Z,24.73
2019-06-20T06:12:25.658Z,24.81
2019-06-20T06:15:00.936Z,24.87
2019-06-20T06:17:35.210Z,24.98
2019-06-20T06:20:09.042Z,25.08
2019-06-20T06:22:44.774Z,25.18
2019-06-20T06:25:19.174Z,25.26
2019-06-20T06:27:52.795Z,25.36
2019-06-20T06:30:26.418Z,25.45
2019-06-20T06:33:00.571Z,25.53
2019-06-20T06:35:34.371Z,25.59
2019-06-20T06:38:08.105Z,25.71
2019-06-20T06:40:41.641Z,25.80
2019-06-20T06:43:15.842Z,25.89
2019-06-20T06:45:49.579Z,25.99
2019-06-20T06:48:23.509Z,26.09
2019-06-20T06:50:57.419Z,26.14
2019-06-20T06:53:30.592Z,26.20
2019-06-20T06:56:04.405Z,26.22
2019-06-20T06:58:39.228Z,26.30
2019-06-20T07:01:12.942Z,26.39
2019-06-20T07:03:46.491Z,26.44
2019-06-20T07:06:20.586Z,26.49
2019-06-20T07:08:54.594Z,26.58
2019-06-20T07:11:27.893Z,26.64
2019-06-20T07:14:02.676Z,26.64
2019-06-20T07:16:35.815Z,26.69
2019-06-20T07:19:09.473Z,26.74
2019-06-20T07:21:42.667Z,26.81
2019-06-20T07:24:16.699Z,26.88
2019-06-20T07:26:50.901Z,26.94
2019-06-20T07:29:24.813Z,27.00
2019-06-20T07:31:58.223Z,27.09
2019-06-20T07:34:32.361Z,27.18
2019-06-20T07:37:05.907Z,27.30
2019-06-20T07:39:39.914Z,27.39
2019-06-20T07:42:13.778Z,27.36
2019-06-20T07:44:46.950Z,27.39
2019-06-20T07:47:21.111Z,27.41
2019-06-20T07:49:54.729Z,27.47
2019-06-20T07:52:28.910Z,27.45
2019-06-20T07:55:02.607Z,27.41
2019-06-20T07:57:36.188Z,27.48
2019-06-20T08:00:10.537Z,27.57
2019-06-20T08:02:43.721Z,27.54
2019-06-20T08:05:19.932Z,27.43
2019-06-20T08:07:54.071Z,27.50
2019-06-20T08:10:28.829Z,27.55
2019-06-20T08:13:02.101Z,27.53
2019-06-20T08:15:35.719Z,27.67
2019-06-20T08:18:09.737Z,27.78
2019-06-20T08:20:43.950Z,27.86
2019-06-20T08:23:17.655Z,27.91
2019-06-20T08:25:50.843Z,28.02
2019-06-20T08:28:24.908Z,28.01
2019-06-20T08:30:58.666Z,28.09
2019-06-20T08:33:33.192Z,28.14
2019-06-20T08:36:06.709Z,28.26
2019-06-20T08:38:42.447Z,28.35
2019-06-20T08:41:15.999Z,28.42
2019-06-20T08:43:50.089Z,28.32
2019-06-20T08:46:23.742Z,28.40
2019-06-20T08:48:58.231Z,28.49
2019-06-20T08:51:33.215Z,28.46
2019-06-20T08:54:06.245Z,28.39
2019-06-20T08:56:40.387Z,28.38
2019-06-20T08:59:23.846Z,28.21
2019-06-20T09:01:48.078Z,28.19
2019-06-20T09:04:22.471Z,28.27
2019-06-20T09:06:56.976Z,28.23
2019-06-20T09:09:30.743Z,28.30
2019-06-20T09:12:05.122Z,28.39
2019-06-20T09:14:38.191Z,28.52
2019-06-20T09:17:12.249Z,28.58
2019-06-20T09:19:46.377Z,28.70
2019-06-20T09:22:20.307Z,28.79
2019-06-20T09:24:55.154Z,28.80
2019-06-20T09:27:29.922Z,28.88
2019-06-20T09:30:03.788Z,28.93
2019-06-20T09:32:37.061Z,28.94
2019-06-20T09:35:10.373Z,29.01
2019-06-20T09:37:43.262Z,29.09
2019-06-20T09:40:17.622Z,29.13
2019-06-20T09:42:51.791Z,29.18
2019-06-20T09:45:27.151Z,29.18
2019-06-20T09:48:02.538Z,29.04
2019-06-20T09:50:36.304Z,29.06
2019-06-20T09:53:09.051Z,29.12
2019-06-20T09:55:42.876Z,29.15
2019-06-20T09:58:16.873Z,29.15
2019-06-20T10:00:51.068Z,29.18
2019-06-20T10:03:24.781Z,29.20
2019-06-20T10:05:58.668Z,29.15
2019-06-20T10:08:32.363Z,29.09
2019-06-20T10:11:05.861Z,29.12
2019-06-20T10:13:39.992Z,29.10
2019-06-20T10:16:13.719Z,29.11
2019-06-20T10:18:48.431Z,29.06
2019-06-20T10:21:22.251Z,29.05
2019-06-20T10:23:56.030Z,29.02
2019-06-20T10:26:29.642Z,28.96
2019-06-20T10:29:03.357Z,28.80
2019-06-20T10:31:36.713Z,28.77
2019-06-20T10:34:10.228Z,28.68
2019-06-20T10:36:45.396Z,28.72
2019-06-20T10:39:20.230Z,28.81
2019-06-20T10:41:53.753Z,28.90
2019-06-20T10:44:27.785Z,29.01
2019-06-20T10:47:01.295Z,29.11
2019-06-20T10:49:34.939Z,29.20
2019-06-20T10:52:08.530Z,29.27
2019-06-20T10:54:43.267Z,29.33
2019-06-20T10:57:17.795Z,29.40
2019-06-20T10:59:51.655Z,29.50
2019-06-20T11:02:25.358Z,29.61
2019-06-20T11:04:59.088Z,29.64
2019-06-20T11:07:31.803Z,29.69
2019-06-20T11:10:05.467Z,29.78
2019-06-20T11:12:45.688Z,29.86
2019-06-20T11:15:15.872Z,29.96
2019-06-20T11:17:48.752Z,30.05
2019-06-20T11:20:22.347Z,30.10
2019-06-20T11:22:56.469Z,30.23
2019-06-20T11:25:30.792Z,30.40
2019-06-20T11:28:03.655Z,30.40
2019-06-20T11:30:52.875Z,30.38
2019-06-20T11:33:13.207Z,30.49
2019-06-20T11:35:45.526Z,30.65
2019-06-20T11:38:19.254Z,30.83
2019-06-20T11:40:52.764Z,31.07
2019-06-20T11:43:26.457Z,31.25
2019-06-20T11:46:00.131Z,31.45
2019-06-20T11:48:35.323Z,31.71
2019-06-20T11:51:09.023Z,31.94
2019-06-20T11:53:42.737Z,32.21
2019-06-20T11:56:16.591Z,32.50
2019-06-20T11:58:50.432Z,32.76
2019-06-20T12:01:32.573Z,33.08
2019-06-20T12:03:59.169Z,33.37
2019-06-20T12:06:32.987Z,33.64
2019-06-20T12:09:08.410Z,33.98
2019-06-20T12:11:42.397Z,34.13
2019-06-20T12:14:16.270Z,34.51
2019-06-20T12:16:51.093Z,34.68
2019-06-20T12:19:25.162Z,34.88
2019-06-20T12:21:59.074Z,35.23
2019-06-20T12:24:33.208Z,35.73
2019-06-20T12:27:07.205Z,36.14
2019-06-20T12:29:41.913Z,36.12
2019-06-20T12:32:16.029Z,36.13
2019-06-20T12:34:49.055Z,35.93
2019-06-20T12:37:21.464Z,36.32
2019-06-20T12:39:54.290Z,36.33
2019-06-20T12:42:27.069Z,36.24
2019-06-20T12:44:59.760Z,36.31
2019-06-20T12:47:32.150Z,36.31
2019-06-20T12:50:04.577Z,36.31
2019-06-20T12:52:39.582Z,36.28
2019-06-20T12:55:13.774Z,36.17
2019-06-20T12:57:46.440Z,36.15
2019-06-20T13:00:21.028Z,36.13
2019-06-20T13:02:55.766Z,36.14
2019-06-20T13:05:28.534Z,35.95
2019-06-20T13:08:01.583Z,35.86
2019-06-20T13:11:12.744Z,35.87
2019-06-20T13:13:46.573Z,35.93
2019-06-20T13:16:19.733Z,36.03
2019-06-20T13:18:52.220Z,36.10
2019-06-20T13:21:25.903Z,36.10
2019-06-20T13:23:59.273Z,36.03
2019-06-20T13:26:32.036Z,35.99
2019-06-20T13:29:05.177Z,35.82
2019-06-20T13:31:56.439Z,35.83
2019-06-20T13:34:44.603Z,35.70
2019-06-20T13:37:19.286Z,35.44
2019-06-20T13:40:30.544Z,35.21
2019-06-20T13:43:03.918Z,34.90
2019-06-20T13:45:36.984Z,34.80
2019-06-20T13:48:11.120Z,34.81
2019-06-20T13:50:45.348Z,34.99
2019-06-20T13:53:19.669Z,35.13
2019-06-20T13:55:53.654Z,35.43
2019-06-20T13:58:27.282Z,35.48
2019-06-20T14:01:00.796Z,35.49
2019-06-20T14:03:34.241Z,34.90
2019-06-20T14:06:07.511Z,35.21
2019-06-20T14:08:42.506Z,35.40
2019-06-20T14:11:16.640Z,35.74
2019-06-20T14:13:53.012Z,36.32
2019-06-20T14:16:25.885Z,36.96
2019-06-20T14:18:59.606Z,37.56
2019-06-20T14:21:33.563Z,38.11
2019-06-20T14:24:07.300Z,38.21
2019-06-20T14:26:43.378Z,38.58
2019-06-20T14:29:17.148Z,38.95
2019-06-20T14:32:02.759Z,39.19
2019-06-20T14:34:36.734Z,39.42
2019-06-20T14:37:10.438Z,39.56
2019-06-20T14:39:44.954Z,39.63
2019-06-20T14:42:19.107Z,39.60
2019-06-20T14:44:54.223Z,39.65
2019-06-20T14:47:29.158Z,39.77
2019-06-20T14:50:03.447Z,39.53
2019-06-20T14:52:37.803Z,39.20
2019-06-20T14:55:11.877Z,39.09
2019-06-20T14:57:46.592Z,39.15
2019-06-20T15:00:21.393Z,39.05
2019-06-20T15:02:58.340Z,38.83
2019-06-20T15:05:30.069Z,38.54
2019-06-20T15:08:02.406Z,38.34
2019-06-20T15:10:35.292Z,38.08
2019-06-20T15:13:09.080Z,37.72
2019-06-20T15:15:41.535Z,37.44
2019-06-20T15:18:14.398Z,37.12
2019-06-20T15:20:50.158Z,36.75
2019-06-20T15:23:23.653Z,36.48
2019-06-20T15:25:57.671Z,36.36
2019-06-20T15:28:31.784Z,36.33
2019-06-20T15:31:05.032Z,36.21
2019-06-20T15:33:39.080Z,36.00
2019-06-20T15:36:12.921Z,35.79
2019-06-20T15:38:48.259Z,35.58
2019-06-20T15:41:21.767Z,35.71
2019-06-20T15:43:56.082Z,36.01
2019-06-20T15:46:30.606Z,36.28
2019-06-20T15:49:15.777Z,36.14
2019-06-20T15:51:39.897Z,35.93
2019-06-20T15:54:13.631Z,35.75
2019-06-20T15:56:47.773Z,35.51
2019-06-20T15:59:21.773Z,35.27
2019-06-20T16:01:55.861Z,35.02
2019-06-20T16:04:28.474Z,34.69
2019-06-20T16:07:01.491Z,34.38
2019-06-20T16:09:35.027Z,34.16
2019-06-20T16:12:07.373Z,33.96
2019-06-20T16:14:40.594Z,33.69
2019-06-20T16:17:13.609Z,33.43
2019-06-20T16:19:47.419Z,32.91
2019-06-20T16:22:21.371Z,32.24
2019-06-20T16:24:55.000Z,31.86
2019-06-20T16:27:28.642Z,31.02
2019-06-20T16:30:02.377Z,30.66
2019-06-20T16:32:36.079Z,30.52
2019-06-20T16:35:11.064Z,30.37
2019-06-20T16:37:44.945Z,30.22
2019-06-20T16:40:20.985Z,30.05
2019-06-20T16:42:55.149Z,29.92
2019-06-20T16:45:29.558Z,29.75
2019-06-20T16:48:03.201Z,29.61
2019-06-20T16:50:36.559Z,29.47
2019-06-20T16:53:10.139Z,29.32
2019-06-20T16:55:44.062Z,28.73
2019-06-20T16:58:17.213Z,28.28
2019-06-20T17:00:50.442Z,28.12
2019-06-20T17:03:25.007Z,27.91
2019-06-20T17:05:58.955Z,27.69
2019-06-20T17:08:33.061Z,27.41
2019-06-20T17:11:06.591Z,27.11
2019-06-20T17:13:39.977Z,26.92
2019-06-20T17:16:14.074Z,26.72
2019-06-20T17:18:47.761Z,26.53
2019-06-20T17:21:21.803Z,26.37
2019-06-20T17:23:56.030Z,26.23
2019-06-20T17:26:29.853Z,26.08
2019-06-20T17:29:03.596Z,25.91
2019-06-20T17:31:37.347Z,25.78
2019-06-20T17:34:10.629Z,25.69
2019-06-20T17:36:44.325Z,25.63
2019-06-20T17:39:18.381Z,25.53
2019-06-20T17:41:55.251Z,25.49
2019-06-20T17:44:27.595Z,25.42
2019-06-20T17:47:01.824Z,25.35
2019-06-20T17:49:35.811Z,25.32
2019-06-20T17:52:09.613Z,25.32
2019-06-20T17:54:43.580Z,25.30
2019-06-20T17:57:17.570Z,25.26
2019-06-20T17:59:51.275Z,25.23
2019-06-20T18:02:25.679Z,24.99
2019-06-20T18:04:59.677Z,24.92
2019-06-20T18:07:33.429Z,24.84
2019-06-20T18:10:06.120Z,24.77
2019-06-20T18:12:38.827Z,24.55
2019-06-20T18:15:12.173Z,24.44
2019-06-20T18:17:44.997Z,24.38
2019-06-20T18:20:17.844Z,24.07
2019-06-20T18:22:50.239Z,23.78
2019-06-20T18:25:23.137Z,23.63
2019-06-20T18:27:56.004Z,23.64
2019-06-20T18:30:44.721Z,23.45
2019-06-20T18:33:18.575Z,23.21
2019-06-20T18:35:51.827Z,23.03
2019-06-20T18:38:25.209Z,23.00
2019-06-20T18:40:59.013Z,22.77
2019-06-20T18:43:31.840Z,22.71
2019-06-20T18:46:04.988Z,22.81
2019-06-20T18:48:38.578Z,22.93
2019-06-20T18:51:11.665Z,22.98
2019-06-20T18:53:44.089Z,23.01
2019-06-20T18:56:17.371Z,23.03
2019-06-20T18:58:50.326Z,23.03
2019-06-20T19:01:23.311Z,23.05
2019-06-20T19:03:55.729Z,23.03
2019-06-20T19:06:35.995Z,23.05
2019-06-20T19:09:07.115Z,23.07
2019-06-20T19:11:39.700Z,23.11
2019-06-20T19:14:16.006Z,23.13
2019-06-20T19:16:48.943Z,23.15
2019-06-20T19:19:21.329Z,23.16
2019-06-20T19:21:53.902Z,23.17
2019-06-20T19:24:26.690Z,23.18
2019-06-20T19:26:59.514Z,23.18
2019-06-20T19:29:32.336Z,23.18
2019-06-20T19:32:05.202Z,23.17
2019-06-20T19:34:38.731Z,23.17
2019-06-20T19:37:11.637Z,23.15
2019-06-20T19:39:45.528Z,23.14
2019-06-20T19:42:20.656Z,23.14
2019-06-20T19:44:54.057Z,23.11
2019-06-20T19:47:27.251Z,23.10
2019-06-20T19:50:01.011Z,23.10
2019-06-20T19:52:35.494Z,23.11
2019-06-20T19:55:08.147Z,23.07
2019-06-20T19:57:41.480Z,23.07
2019-06-20T20:00:15.029Z,23.08
2019-06-20T20:02:47.473Z,23.08
2019-06-20T20:05:20.134Z,23.06
2019-06-20T20:07:52.890Z,23.08
2019-06-20T20:10:52.718Z,23.07
2019-06-20T20:13:25.498Z,23.07
2019-06-20T20:15:58.867Z,23.08
2019-06-20T20:18:31.621Z,23.08
2019-06-20T20:21:04.110Z,23.08
2019-06-20T20:23:37.463Z,23.08
2019-06-20T20:26:09.384Z,23.07
2019-06-20T20:28:41.752Z,23.06
2019-06-20T20:31:14.649Z,23.05
2019-06-20T20:33:48.183Z,23.05
2019-06-20T20:36:25.142Z,23.08
2019-06-20T20:38:57.729Z,23.11
2019-06-20T20:41:31.085Z,23.13
2019-06-20T20:44:04.954Z,23.14
2019-06-20T20:46:39.041Z,23.13
2019-06-20T20:49:12.737Z,23.12
2019-06-20T20:51:46.799Z,23.09
2019-06-20T20:54:20.464Z,23.05
2019-06-20T20:56:54.670Z,23.00
2019-06-20T20:59:28.682Z,22.94
2019-06-20T21:02:02.463Z,22.91
2019-06-20T21:04:35.693Z,22.91
2019-06-20T21:07:09.037Z,22.89
2019-06-20T21:09:43.174Z,22.88
2019-06-20T21:12:17.093Z,22.88
2019-06-20T21:14:51.212Z,22.86
2019-06-20T21:17:25.451Z,22.82
2019-06-20T21:19:58.905Z,22.77
2019-06-20T21:22:32.836Z,22.75
2019-06-20T21:25:06.200Z,22.73
2019-06-20T21:27:39.962Z,22.72
2019-06-20T21:30:14.562Z,22.69
2019-06-20T21:32:48.697Z,22.68
2019-06-20T21:35:24.200Z,22.67
2019-06-20T21:37:57.852Z,22.67
2019-06-20T21:40:31.600Z,22.62
2019-06-20T21:43:04.438Z,22.59
2019-06-20T21:45:38.838Z,22.58
2019-06-20T21:48:12.850Z,22.56
2019-06-20T21:50:46.347Z,22.53
2019-06-20T21:53:19.925Z,22.48
2019-06-20T21:55:54.083Z,22.46
2019-06-20T21:58:27.539Z,22.42
2019-06-20T22:01:04.102Z,22.40
2019-06-20T22:03:37.683Z,22.38
2019-06-20T22:06:23.258Z,22.37
2019-06-20T22:08:44.969Z,22.35
2019-06-20T22:11:18.823Z,22.34
2019-06-20T22:13:52.477Z,22.30
2019-06-20T22:16:25.924Z,22.28
2019-06-20T22:19:00.058Z,22.26
2019-06-20T22:21:34.105Z,22.24
2019-06-20T22:24:08.326Z,22.22
2019-06-20T22:26:42.271Z,22.20
2019-06-20T22:29:16.027Z,22.18
2019-06-20T22:31:49.544Z,22.15
2019-06-20T22:34:23.187Z,22.13
2019-06-20T22:36:56.939Z,22.06
2019-06-20T22:39:30.743Z,21.95
2019-06-20T22:42:05.113Z,21.92
2019-06-20T22:44:39.250Z,21.91
2019-06-20T22:47:13.388Z,21.91
2019-06-20T22:49:47.200Z,21.91
2019-06-20T22:52:21.057Z,21.90
2019-06-20T22:54:54.595Z,21.87
2019-06-20T22:57:27.716Z,21.86
2019-06-20T23:00:02.020Z,21.85
2019-06-20T23:02:34.685Z,21.85
2019-06-20T23:05:08.157Z,21.86
2019-06-20T23:07:41.772Z,21.85
2019-06-20T23:10:16.479Z,21.83
2019-06-20T23:12:50.639Z,21.83
2019-06-20T23:15:24.417Z,21.67
2019-06-20T23:17:58.051Z,21.51
2019-06-20T23:20:32.344Z,21.38
2019-06-20T23:23:05.177Z,21.27
2019-06-20T23:25:40.296Z,21.24
2019-06-20T23:28:14.279Z,21.27
2019-06-20T23:30:47.877Z,21.30
2019-06-20T23:33:21.476Z,21.33
2019-06-20T23:35:54.610Z,21.36
2019-06-20T23:38:29.015Z,21.37
2019-06-20T23:41:03.212Z,21.38
2019-06-20T23:43:36.829Z,21.40
2019-06-20T23:46:10.853Z,21.40
2019-06-20T23:48:44.456Z,21.35
2019-06-20T23:51:25.319Z,21.25
2019-06-20T23:53:53.776Z,21.21
2019-06-20T23:56:27.373Z,21.15
2019-06-20T23:59:01.496Z,21.04
